createdAt,value
2023-01-11T00:03:41.385Z,56.88
2023-01-11T00:08:44.504Z,56.64
2023-01-11T00:13:47.739Z,56.69
2023-01-11T00:18:50.919Z,56.89
2023-01-11T00:23:53.982Z,56.97
2023-01-11T00:28:57.060Z,56.73
2023-01-11T00:34:00.572Z,56.79
2023-01-11T00:39:03.641Z,56.52
2023-01-11T00:44:25.312Z,56.48
2023-01-11T00:49:28.559Z,56.21
2023-01-11T00:54:31.708Z,56.94
2023-01-11T00:59:36.295Z,56.16
2023-01-11T01:04:40.122Z,56.12
2023-01-11T01:09:43.156Z,56.36
2023-01-11T01:14:47.642Z,56.08
2023-01-11T01:19:50.660Z,56.39
2023-01-11T01:24:53.760Z,56.83
2023-01-11T01:29:56.831Z,56.34
2023-01-11T01:34:59.954Z,56.34
2023-01-11T01:40:03.669Z,56.60
2023-01-11T01:45:18.012Z,56.48
2023-01-11T01:50:25.841Z,56.23
2023-01-11T01:55:33.611Z,57.50
2023-01-11T02:00:40.084Z,56.45
2023-01-11T02:05:47.216Z,56.37
2023-01-11T02:10:51.043Z,56.14
2023-01-11T02:16:08.273Z,55.68
2023-01-11T02:21:42.926Z,55.99
2023-01-11T02:27:16.111Z,56.04
2023-01-11T02:32:52.934Z,56.60
2023-01-11T02:38:20.297Z,55.95
2023-01-11T02:44:02.025Z,55.91
2023-01-11T02:49:34.022Z,55.50
2023-01-11T02:54:39.611Z,56.01
2023-01-11T02:59:42.934Z,55.48
2023-01-11T03:04:45.994Z,55.54
2023-01-11T03:09:51.583Z,55.78
2023-01-11T03:15:18.863Z,55.65
2023-01-11T03:20:31.073Z,55.25
2023-01-11T03:25:51.099Z,55.32
2023-01-11T03:31:07.408Z,55.32
2023-01-11T03:36:16.553Z,55.14
2023-01-11T03:41:22.607Z,54.94
2023-01-11T03:46:32.376Z,55.19
2023-01-11T03:51:42.910Z,55.20
2023-01-11T03:56:59.337Z,55.07
2023-01-11T04:02:03.060Z,55.55
2023-01-11T04:07:06.143Z,55.62
2023-01-11T04:12:09.334Z,56.08
2023-01-11T04:17:12.445Z,56.19
2023-01-11T04:22:15.998Z,54.89
2023-01-11T04:27:19.145Z,56.06
2023-01-11T04:32:22.200Z,55.73
2023-01-11T04:37:25.259Z,56.11
2023-01-11T04:42:28.363Z,56.12
2023-01-11T04:47:31.789Z,55.14
2023-01-11T04:52:34.918Z,55.29
2023-01-11T04:57:38.143Z,56.01
2023-01-11T05:02:41.320Z,55.47
2023-01-11T05:07:44.555Z,55.64
2023-01-11T05:12:47.691Z,54.69
2023-01-11T05:17:50.549Z,54.56
2023-01-11T05:22:53.566Z,54.88
2023-01-11T05:27:56.681Z,54.56
2023-01-11T05:32:59.757Z,55.42
2023-01-11T05:38:02.816Z,54.89
2023-01-11T05:43:05.987Z,54.63
2023-01-11T05:48:09.039Z,53.52
2023-01-11T05:53:12.125Z,53.63
2023-01-11T05:58:15.199Z,52.33
2023-01-11T06:03:19.276Z,52.19
2023-01-11T06:08:22.418Z,52.09
2023-01-11T06:13:29.073Z,51.00
2023-01-11T06:18:35.138Z,51.21
2023-01-11T06:23:40.736Z,50.93
2023-01-11T06:28:44.066Z,50.91
2023-01-11T06:33:47.644Z,50.38
2023-01-11T06:38:52.648Z,50.21
2023-01-11T06:43:55.724Z,49.74
2023-01-11T06:48:58.896Z,48.74
2023-01-11T06:54:01.993Z,48.49
2023-01-11T06:59:05.169Z,48.63
2023-01-11T07:04:08.636Z,49.12
2023-01-11T07:09:11.767Z,48.51
2023-01-11T07:14:20.184Z,49.35
2023-01-11T07:19:23.374Z,47.68
2023-01-11T07:24:28.560Z,47.79
2023-01-11T07:29:31.630Z,48.86
2023-01-11T07:34:35.104Z,48.57
2023-01-11T07:39:43.832Z,47.34
2023-01-11T07:44:47.280Z,47.91
2023-01-11T07:49:50.419Z,47.17
2023-01-11T07:54:53.609Z,45.92
2023-01-11T07:59:56.711Z,46.67
2023-01-11T08:05:01.189Z,46.66
2023-01-11T08:10:36.566Z,45.89
2023-01-11T08:15:42.856Z,46.25
2023-01-11T08:20:46.770Z,45.75
2023-01-11T08:25:50.040Z,46.90
2023-01-11T08:30:53.184Z,45.77
2023-01-11T08:35:56.269Z,46.14
2023-01-11T08:40:59.694Z,46.22
2023-01-11T08:46:03.088Z,45.80
2023-01-11T08:56:26.877Z,46.36
2023-01-11T09:01:30.335Z,45.92
2023-01-11T09:06:33.443Z,45.97
2023-01-11T09:11:54.797Z,47.09
2023-01-11T09:16:58.292Z,45.48
2023-01-11T09:22:09.985Z,45.83
2023-01-11T09:27:13.163Z,46.22
2023-01-11T09:32:16.578Z,45.48
2023-01-11T09:37:20.591Z,45.26
2023-01-11T09:42:40.185Z,45.86
2023-01-11T09:48:12.098Z,46.67
2023-01-11T09:53:36.507Z,46.89
2023-01-11T09:58:57.848Z,46.04
2023-01-11T10:04:33.256Z,46.31
2023-01-11T10:18:37.593Z,46.22
2023-01-11T10:21:23.756Z,46.17
2023-01-11T10:26:29.541Z,45.97
2023-01-11T10:31:51.417Z,46.31
2023-01-11T10:42:46.947Z,47.09
2023-01-11T10:48:03.224Z,47.08
2023-01-11T10:53:21.032Z,46.95
2023-01-11T10:58:46.479Z,48.29
2023-01-11T11:04:04.494Z,49.32
2023-01-11T11:15:14.380Z,48.49
2023-01-11T11:25:43.374Z,50.17
2023-01-11T11:30:47.839Z,50.64
2023-01-11T11:36:00.475Z,51.30
2023-01-11T11:41:10.512Z,50.80
2023-01-11T11:46:20.490Z,52.50
2023-01-11T11:51:25.585Z,51.86
2023-01-11T11:56:33.348Z,51.46
2023-01-11T12:01:46.963Z,52.86
2023-01-11T12:07:19.800Z,53.65
2023-01-11T12:12:26.914Z,53.46
2023-01-11T12:17:31.075Z,53.52
2023-01-11T12:22:34.241Z,54.27
2023-01-11T12:27:55.697Z,54.94
2023-01-11T12:33:13.542Z,54.39
2023-01-11T12:38:32.134Z,55.35
2023-01-11T12:43:59.835Z,55.71
2023-01-11T12:49:02.924Z,56.21
2023-01-11T12:54:17.881Z,56.02
2023-01-11T12:59:57.337Z,56.19
2023-01-11T13:05:03.329Z,56.81
2023-01-11T13:10:15.801Z,56.88
2023-01-11T13:15:42.203Z,57.23
2023-01-11T13:21:01.240Z,57.09
2023-01-11T13:26:23.733Z,57.65
2023-01-11T13:31:27.455Z,58.17
2023-01-11T13:36:41.128Z,58.59
2023-01-11T13:42:50.024Z,58.77
2023-01-11T13:47:30.083Z,59.16
2023-01-11T13:52:48.410Z,58.61
2023-01-11T14:03:41.568Z,58.75
2023-01-11T14:08:54.966Z,59.66
2023-01-11T14:14:35.391Z,59.90
2023-01-11T14:20:01.738Z,59.60
2023-01-11T14:25:15.527Z,59.86
2023-01-11T14:30:18.581Z,60.03
2023-01-11T14:35:43.721Z,60.93
2023-01-11T14:40:54.621Z,60.72
2023-01-11T14:46:00.787Z,60.20
2023-01-11T14:51:23.936Z,61.00
2023-01-11T14:57:01.865Z,61.03
2023-01-11T15:02:16.540Z,60.92
2023-01-11T15:07:33.705Z,60.76
2023-01-11T15:12:41.371Z,61.63
2023-01-11T15:18:05.251Z,61.84
2023-01-11T15:23:32.648Z,62.21
2023-01-11T15:29:03.585Z,61.27
2023-01-11T15:34:25.219Z,60.98
2023-01-11T15:39:58.448Z,62.03
2023-01-11T15:45:14.543Z,61.38
2023-01-11T15:50:54.852Z,60.63
2023-01-11T15:56:22.600Z,62.48
2023-01-11T16:01:29.301Z,62.14
2023-01-11T16:07:09.777Z,61.93
2023-01-11T16:12:30.434Z,61.90
2023-01-11T16:17:33.823Z,61.63
2023-01-11T16:22:37.047Z,61.34
2023-01-11T16:27:40.396Z,61.46
2023-01-11T16:32:43.492Z,61.26
2023-01-11T16:38:02.056Z,62.28
2023-01-11T16:43:22.469Z,61.68
2023-01-11T16:48:27.619Z,62.09
2023-01-11T16:53:34.375Z,60.67
2023-01-11T16:58:39.532Z,61.85
2023-01-11T17:03:51.129Z,61.09
2023-01-11T17:08:56.863Z,60.82
2023-01-11T17:14:38.315Z,62.49
2023-01-11T17:19:47.367Z,61.55
2023-01-11T17:24:53.076Z,62.04
2023-01-11T17:29:58.626Z,60.52
2023-01-11T17:35:05.852Z,60.25
2023-01-11T17:40:32.183Z,60.75
2023-01-11T17:45:36.394Z,60.66
2023-01-11T17:50:58.234Z,61.57
2023-01-11T17:56:07.608Z,59.85
2023-01-11T18:01:16.656Z,60.91
2023-01-11T18:06:37.799Z,61.33
2023-01-11T18:11:41.807Z,60.05
2023-01-11T18:17:03.622Z,60.35
2023-01-11T18:22:43.347Z,61.44
2023-01-11T18:27:47.389Z,60.46
2023-01-11T18:32:50.715Z,61.94
2023-01-11T18:37:53.867Z,61.63
2023-01-11T18:42:57.779Z,60.45
2023-01-11T18:48:00.895Z,61.85
2023-01-11T18:53:04.044Z,60.68
2023-01-11T18:58:07.237Z,61.71
2023-01-11T19:03:12.003Z,61.21
2023-01-11T19:08:15.089Z,61.24
2023-01-11T19:13:19.805Z,61.90
2023-01-11T19:18:23.373Z,62.24
2023-01-11T19:23:26.502Z,60.82
2023-01-11T19:28:30.079Z,61.66
2023-01-11T19:33:33.145Z,60.97
2023-01-11T19:38:36.488Z,61.88
2023-01-11T19:43:45.219Z,62.61
2023-01-11T19:48:48.075Z,62.72
2023-01-11T19:53:51.026Z,61.67
2023-01-11T19:58:54.148Z,62.42
2023-01-11T20:03:57.171Z,61.63
2023-01-11T20:09:00.469Z,62.01
2023-01-11T20:14:03.523Z,62.03
2023-01-11T20:19:06.653Z,61.26
2023-01-11T20:24:13.203Z,61.00
2023-01-11T20:29:16.289Z,62.35
2023-01-11T20:34:19.755Z,61.67
2023-01-11T20:39:22.812Z,61.82
2023-01-11T20:44:32.380Z,61.63
2023-01-11T20:49:35.564Z,60.91
2023-01-11T20:54:38.678Z,61.43
2023-01-11T20:59:41.742Z,60.80
2023-01-11T21:04:44.780Z,61.82
2023-01-11T21:09:47.828Z,61.36
2023-01-11T21:14:51.035Z,60.84
2023-01-11T21:19:54.294Z,61.45
2023-01-11T21:24:57.383Z,61.94
2023-01-11T21:30:00.353Z,61.36
2023-01-11T21:35:03.494Z,61.06
2023-01-11T21:40:07.051Z,61.31
2023-01-11T21:45:11.397Z,61.51
2023-01-11T21:50:14.483Z,61.54
2023-01-11T21:55:18.106Z,61.43
2023-01-11T22:00:21.454Z,61.79
2023-01-11T22:05:25.164Z,60.77
2023-01-11T22:10:28.297Z,61.69
2023-01-11T22:15:54.246Z,62.20
2023-01-11T22:20:57.980Z,61.47
2023-01-11T22:31:31.878Z,61.91
2023-01-11T22:36:35.024Z,60.84
2023-01-11T22:41:40.267Z,62.69
2023-01-11T22:46:44.269Z,62.51
2023-01-11T22:51:47.393Z,61.43
2023-01-11T22:56:50.596Z,61.23
2023-01-11T23:01:53.607Z,63.57
2023-01-11T23:06:57.675Z,61.73
2023-01-11T23:12:19.150Z,62.09
2023-01-11T23:17:22.314Z,62.91
2023-01-11T23:22:25.429Z,63.60
2023-01-11T23:27:28.515Z,61.79
2023-01-11T23:32:31.708Z,63.30
2023-01-11T23:37:34.825Z,62.38
2023-01-11T23:42:38.918Z,62.55
2023-01-11T23:47:42.054Z,63.61
2023-01-11T23:52:45.089Z,63.05
2023-01-11T23:58:08.109Z,62.69
